EDT,Max TemperatureF,Mean TemperatureF,Min TemperatureF,Max Dew PointF,MeanDew PointF,Min DewpointF,Max Humidity, Mean Humidity, Min Humidity, Max Sea Level PressureIn, Mean Sea Level PressureIn, Min Sea Level PressureIn, Max VisibilityMiles, Mean VisibilityMiles, Min VisibilityMiles, Max Wind SpeedMPH, Mean Wind SpeedMPH, Max Gust SpeedMPH,PrecipitationIn, CloudCover, Events, WindDirDegrees
2013-9-1,84,78,72,73,70,67,94,80,61,29.89,29.85,29.80,10,9,2,9,4,17,0.11,4,Rain-Thunderstorm,178
2013-9-2,80,74,68,74,71,66,100,92,78,29.87,29.78,29.70,10,6,1,20,4,29,0.82,7,Rain-Thunderstorm,122
2013-9-3,81,72,63,70,64,56,100,83,58,29.82,29.75,29.71,10,7,0,10,2,16,0.01,3,Fog-Rain,262
2013-9-4,82,70,60,57,54,50,86,59,34,29.93,29.88,29.82,10,10,10,10,5,16,0.00,0,,266
2013-9-5,71,62,55,57,46,35,81,55,28,30.19,30.00,29.88,10,10,10,22,7,29,0.00,4,,321
2013-9-6,70,58,48,47,41,34,77,55,30,30.27,30.20,30.11,10,10,10,9,3,,0.00,0,,291
2013-9-7,81,64,48,60,49,45,90,63,30,30.10,29.99,29.87,10,10,10,7,3,,0.01,2,Rain,212
2013-9-8,71,63,54,57,48,38,78,57,35,30.13,29.89,29.78,10,10,10,22,7,31,0.00,3,,310
2013-9-9,70,56,44,48,42,40,89,59,36,30.27,30.19,30.13,10,10,10,10,4,,0.00,0,,196
2013-9-10,75,65,55,70,62,49,94,85,74,30.17,30.08,30.01,10,9,3,9,6,,0.05,6,Rain,180
2013-9-11,95,82,69,73,69,64,100,79,44,30.08,30.02,29.94,10,5,0,15,5,26,0.14,4,Fog-Rain-Thunderstorm,224
2013-9-12,82,74,66,75,68,64,100,87,77,29.95,29.78,29.67,10,6,0,13,5,36,2.99,6,Rain-Thunderstorm,205
2013-9-13,75,66,59,66,63,52,100,85,61,29.79,29.65,29.59,10,6,0,16,5,23,0.51,6,Fog-Rain,277
2013-9-14,66,60,53,52,50,49,89,70,52,30.08,29.93,29.80,10,10,10,13,7,20,0.00,6,,319
2013-9-15,70,58,46,54,48,42,100,73,38,30.19,30.12,30.06,10,9,2,8,2,,0.00,0,,220
2013-9-16,66,57,48,52,47,34,84,67,48,30.30,30.10,30.03,10,10,10,20,5,24,0.00,3,Rain,316
2013-9-17,64,56,41,52,38,34,86,59,35,30.46,30.36,29.81,10,10,10,14,5,18,0.00,0,,327
2013-9-18,73,57,41,48,43,39,100,61,29,30.34,30.24,30.13,10,9,2,7,2,17,0.00,0,,222
2013-9-19,78,62,46,56,49,44,90,65,30,30.16,30.11,30.05,10,10,10,7,1,,0.00,0,,329
2013-9-20,79,65,51,59,53,49,93,71,36,30.12,30.07,30.02,10,10,10,9,3,,0.00,0,,92
2013-9-21,75,63,51,64,56,51,100,84,55,30.04,29.92,29.73,10,7,0,16,5,24,0.01,4,Fog,184
2013-9-22,70,62,53,66,55,41,94,73,42,29.87,29.70,29.59,10,9,1,15,10,23,0.54,5,Rain,256
2013-9-23,61,54,48,41,38,36,74,59,46,30.03,29.95,29.88,10,10,10,15,10,26,0.00,1,,324
2013-9-24,66,54,43,43,39,37,82,59,36,30.01,29.94,29.86,10,10,10,18,8,29,0.00,1,,314
2013-9-25,70,56,44,51,46,41,89,68,44,30.02,29.94,29.91,10,10,10,13,2,17,0.00,4,,353
2013-9-26,69,60,52,52,46,41,80,63,42,30.17,30.08,30.03,10,10,10,8,5,,0.00,4,,10
2013-9-27,69,61,53,53,50,48,90,70,49,30.30,30.24,30.17,10,10,10,8,4,,0.00,5,,350
2013-9-28,73,62,51,53,50,48,92,72,44,30.37,30.32,30.30,10,10,10,12,3,,0.00,1,,10
2013-9-29,69,57,46,52,47,45,100,85,45,30.29,30.22,30.15,10,6,0,9,1,,0.00,3,Fog,86
2013-9-30,71,56,42,52,46,43,100,84,41,30.16,30.08,30.00,10,5,0,8,2,,0.00,3,Fog,14